MMAN 090541Z 00000KT 8SM FEW015 17/15 A3001 RMK SLP/// 5//// 9// 8/500= 090542

MMAN 090440Z 13003KT 8SM SKC 18/14 A3003= 090440

MMAN 090340Z 00000KT 10SM SKC 19/14 A3003= 090341

MMAN 090240Z 00000KT 10SM SKC 20/14 A3002 RMK SLP/// 5//// 9//= 090241

MMAN 090140Z 00000KT 10SM SKC 19/12 A3001= 090140

MMAN 090040Z 00000KT 12SM SKC 20/13 A2999 RMK ISOL CI= 090041

MMAN 082344Z 11004KT 12SM OVC200 23/12 A2998 RMK SLP/// 5//// 9// 8/007= 082344

MMAN 082240Z 13009KT 10SM SCT200 25/11 A2997 RMK 8/008= 082241

MMAN 082140Z 14010KT 10SM BKN200 26/11 A2997 RMK 8/008= 082141

MMAN 082040Z 12010KT 12SM SCT200 27/10 A2997 RMK SLP/// 5//// 9// 8/008= 082041

MMAN 081940Z 13008KT 15SM BKN200 26/09 A2998 RMK 8/002= 081942

MMAN 081841Z 00000KT 15SM SCT200 26/08 A3002 RMK 8/001= 081841

MMAN 081740Z 00000KT 15SM SCT200 24/08 A3005 RMK SLP/// 5//// 9// 8/001= 081741

MMAN 081640Z 00000KT 15SM FEW200 22/08 A3008 RMK 8/001= 081640

MMAN 081541Z 00000KT 15SM OVC200 19/08 A3008 RMK 8/007= 081541

MMAN 081440Z 00000KT 15SM SCT200 14/08 A3007 RMK SLP/// 5//// 9// 8/008= 081440

MMAN 081340Z 32005KT 12SM SKC 13/08 A3004 RMK ISOL CI= 081340

MMAN 081240Z 28004KT 8SM SKC 11/07 A3003 RMK ISOL AC= 081240

MMAN 081140Z 00000KT 8SM SKC 10/07 A3002 RMK SLP/// 5//// 9// HZ RTS= 081141

MMAN 080540Z 00000KT 8SM SKC 13/08 A3004 RMK SLP/// 5//// 9//= 080542

MMAN 080440Z 00000KT 8SM SKC 14/08 A3005= 080441

MMAN 080340Z 00000KT 8SM SKC 14/08 A3004= 080341

MMAN 080240Z 00000KT 8SM SKC 16/08 A3002 RMK SLP/// 5//// 9//= 080240

MMAN 080140Z 00000KT 8SM SKC 17/07 A3000= 080140

MMAN 080045Z 09005KT 10SM FEW200 18/08 A2998 RMK 8/002= 080046

MMAN 072340Z 10003KT 12SM SCT200 20/08 A2996 RMK SLP/// 5//// 9// 8/002= 072348

MMAN 072240Z 11006KT 10SM SCT200 21/08 A2995 RMK 8/002= 072240

MMAN 072140Z 13006KT 10SM BKN200 22/07 A2995 RMK 8/002= 072141

MMAN 072041Z 12002KT 10SM BKN200 22/07 A2997 RMK SLP/// 5//// 9// 8/002= 072041

MMAN 071940Z 13002KT 10SM BKN200 21/05 A3000 RMK 8/002= 071940

MMAN 071840Z 16009KT 10SM BKN200 20/03 A3004 RMK 8/002= 071840

MMAN 071740Z 15008KT 10SM BKN200 19/02 A3008 RMK SLP/// 5//// 9// 8/002= 071741

MMAN 071640Z 00000KT 12SM BKN200 16/00 A3012 RMK 8/002 ISOL SC= 071641

MMAN 071540Z 00000KT 12SM BKN200 16/M02 A3014 RMK 8/002= 071540

MMAN 071440Z 00000KT 10SM BKN040 15/M02 A3014 RMK SLP/// 5//// 9// 8/500= 071441

MMAN 071343Z 35002KT 8SM OVC040 14/M03 A3013 RMK 8/5//= 071343

MMAN 071240Z 35005KT 8SM BKN040 15/M03 A3012 RMK 8/500 HZY RTS= 071241

MMAN 070540Z 35013KT 8SM BKN030 16/00 A3017 RMK SLP/// 5//// 9// 8/500= 070541

MMAN 070441Z 36015KT 8SM SCT030 16/01 A3017 RMK 8/500= 070442

MMAN 070340Z 36011KT 8SM SCT030 16/03 A3016 RMK 8/500= 070341

MMAN 070240Z 36011KT 10SM FEW070 17/05 A3015 RMK SLP/// 5//// 9// 8/030= 070241

MMAN 070140Z 36012KT 10SM FEW070 17/08 A3014 RMK 8/030= 070141

MMAN 070040Z 01010KT 10SM BKN200 18/11 A3012 RMK 8/006= 070041

MMAN 062340Z 36012KT 12SM BKN200 19/13 A3008 RMK SLP/// 5//// 9// 8/006= 062341

MMAN 062240Z 36015KT 8SM BKN200 22/14 A3006 RMK 8/002 HZY= 062241

MMAN 062140Z 02011G22KT 8SM BKN200 24/14 A3004 RMK 8/002 HZY= 062141

MMAN 062040Z 36012G22KT 8SM BKN200 24/15 A3003 RMK SLP/// 5//// 9// 8/002 HZY ISOL SC= 062041

MMAN 061942Z 35010KT 15SM BKN200 27/15 A3002 RMK 8/002 ISOL SC= 061942

MMAN 061841Z 01003KT 15SM BKN200 28/15 A3004 RMK 8/002= 061842

MMAN 061741Z 00000KT 12SM FEW080 BKN200 25/15 A3008 RMK SLP/// 5//// 9// 8/032= 061743